ARBÚCIES (La Selva)





Hora UTC 02:50
Temperatura 14.1 ºC
Humitat 82.8 %
Pressió 1019.0 hPa
Pluja 0.0 mm
Velocitat vent 6.4 km/h
Direcció vent SSW
Radiació solar 0.0 W/m²

Dades diàries 2024-05-30



Hora UTC (hivern +1h; estiu +2h)
Temperatura (ºC) Humitat (%) Pressió (hPa) Velocitat vent (km/h) Precipitació (mm) Radiació solar (W/m²)
Hora UTC Aire Humitat Pressió Vel. Dir. Vel. Max Dir. Intent. màx 5 min. Rad. Sol.
00:05 16.7 74.3 1020.0 6.5 SSW 10.2 SW 0.0 0.0
00:10 16.6 74.6 1020.0 6.2 SSW 10.6 SW 0.0 0.0
00:15 16.5 74.8 1020.0 7.0 SSW 10.6 S 0.0 0.0
00:20 16.5 74.8 1020.0 6.3 SSW 10.2 SSW 0.0 0.0
00:25 16.4 75.3 1020.0 6.8 SSW 9.9 WSW 0.0 0.0
00:30 16.2 76.0 1020.0 6.4 SW 9.2 SW 0.0 0.0
00:35 16.0 77.0 1020.0 7.8 SSW 10.2 SW 0.0 0.0
00:40 15.9 77.6 1020.0 8.2 SSW 12.7 SSW 0.0 0.0
00:45 15.8 77.9 1020.0 9.2 SSW 12.7 SW 0.0 0.0
00:50 15.8 77.9 1020.0 8.5 SSW 12.7 SW 0.0 0.0
00:55 15.7 78.0 1020.0 9.4 SSW 12.3 SW 0.0 0.0
01:00 15.7 78.1 1019.0 8.8 SSW 11.3 SSW 0.0 0.0
01:05 15.4 78.4 1019.0 8.4 SSW 12.0 SSW 0.0 0.0
01:10 15.3 79.6 1019.0 8.8 SSW 12.0 SSW 0.0 0.0
01:15 15.2 80.0 1019.0 9.1 SSW 14.1 SSW 0.0 0.0
01:20 15.3 79.5 1020.0 8.9 SW 16.2 SSW 0.0 0.0
01:25 15.5 78.4 1019.0 9.0 SSW 13.4 SW 0.0 0.0
01:30 15.4 78.2 1019.0 9.0 SW 15.9 SW 0.0 0.0
01:35 15.4 78.4 1019.0 9.4 SSW 16.6 SSW 0.0 0.0
01:40 15.5 77.6 1019.0 9.0 SW 15.5 SSW 0.0 0.0
01:45 15.4 77.2 1019.0 7.5 SW 9.9 SW 0.0 0.0
01:50 15.1 78.7 1020.0 6.8 SSW 9.5 SSW 0.0 0.0
01:55 14.9 79.7 1019.0 5.9 SSW 9.9 SW 0.0 0.0
02:00 14.9 80.3 1019.0 6.2 SW 12.7 SW 0.0 0.0
02:05 15.0 80.1 1019.0 6.9 SSW 10.9 SSW 0.0 0.0
02:10 15.1 78.9 1019.0 5.4 SW 10.6 S 0.0 0.0
02:15 14.8 79.3 1019.0 5.9 SSW 8.1 SW 0.0 0.0
02:20 14.5 80.5 1020.0 6.2 SSW 9.5 SSW 0.0 0.0
02:25 14.5 81.5 1019.0 6.0 SSW 8.8 S 0.0 0.0
02:30 14.4 81.2 1019.0 6.6 SSW 9.5 SW 0.0 0.0
02:35 14.3 81.8 1019.0 6.0 SSW 8.8 SSW 0.0 0.0
02:40 14.3 82.1 1019.0 6.6 SSW 10.6 SSW 0.0 0.0
02:45 14.2 82.0 1019.0 4.0 SSW 8.1 SW 0.0 0.0
02:50 14.1 82.8 1019.0 6.4 SSW 10.6 SW 0.0 0.0
Màxima 16.7 82.8 1020.0 9.4 SSW 16.6 SSW 0.0 0.0
Mínima 14.1 74.3 1019.0
Total 0.0